RJFO(METAR)
02/01 22:00
METAR RJFO 011300Z 32005KT 220V030 9999 FEW030 BKN/// 12/M01 Q1016
RMK 1CU030 A3003=
戻る
トップページへ戻る
IMOC Co,.Ltd.